In Rescue
 
Open Full Screen Window  High Contrast Mode
Wind Gusting 14 knots
09
March 20, 2019 9:14 PM EDT
Present Weather: Light Rain
Weather Information
Wind Direction
  170 °
Wind Speed
  09 kt (10 mph)
Wind Gust
  14 kt (16 mph)
Altimeter
29.98 in
Visibility
10 SM
Temperature
05° C
41° F
Dewpoint
04° C
39° F
Humidity
93%
1hr Rain Fall
00.00 in.
24hr Rain Fall
00.01 in.
Sky Condition
Overcast @ 2,800 ft
MVFR

METAR KTTF 210114Z AUTO 17009G14KT 10SM -RA OVC028 05/04 A2998 RMK AO2 T00480043

FAA Disclaimer: The data displayed is for advisory purposes only and is not to be used for flight planning or operations.